Time,TemperatureF,DewpointF,PressureIn,WindDirection,WindDirectionDegrees,WindSpeedMPH,WindSpeedGustMPH,Humidity,HourlyPrecipIn,Conditions,Clouds,dailyrainin,SoftwareType,DateUTC
2013-09-24 00:07:00,51.2,46.0,29.75,North,355,0.0,1.0,83,0.00,,,0.00,weatherlink.com 1.10,2013-09-24 07:07:00,
2013-09-24 00:22:00,50.7,46.0,29.76,North,355,0.0,1.0,85,0.00,,,0.00,weatherlink.com 1.10,2013-09-24 07:22:00,
2013-09-24 00:37:00,50.2,46.0,29.76,North,355,0.0,2.0,86,0.00,,,0.00,weatherlink.com 1.10,2013-09-24 07:37:00,
2013-09-24 00:52:00,49.8,46.0,29.76,North,355,0.0,0.0,87,0.00,,,0.00,weatherlink.com 1.10,2013-09-24 07:52:00,
2013-09-24 01:07:00,49.2,46.0,29.76,North,355,0.0,0.0,87,0.00,,,0.00,weatherlink.com 1.10,2013-09-24 08:07:00,
2013-09-24 01:22:00,48.8,45.0,29.76,North,355,0.0,1.0,88,0.00,,,0.00,weatherlink.com 1.10,2013-09-24 08:22:00,
2013-09-24 01:37:00,48.4,45.0,29.77,North,355,0.0,0.0,89,0.00,,,0.00,weatherlink.com 1.10,2013-09-24 08:37:00,
2013-09-24 01:52:00,48.3,46.0,29.77,North,355,0.0,0.0,90,0.00,,,0.00,weatherlink.com 1.10,2013-09-24 08:52:00,
2013-09-24 02:07:00,47.9,45.0,29.77,North,355,0.0,0.0,89,0.00,,,0.00,weatherlink.com 1.10,2013-09-24 09:07:00,
2013-09-24 02:22:00,47.7,45.0,29.77,North,355,0.0,1.0,90,0.00,,,0.00,weatherlink.com 1.10,2013-09-24 09:22:00,
2013-09-24 02:37:00,47.3,45.0,29.77,North,355,0.0,1.0,90,0.00,,,0.00,weatherlink.com 1.10,2013-09-24 09:37:00,
2013-09-24 02:52:00,46.8,44.0,29.77,North,355,0.0,0.0,90,0.00,,,0.00,weatherlink.com 1.10,2013-09-24 09:52:00,
2013-09-24 03:07:00,46.4,44.0,29.77,North,355,0.0,0.0,92,0.00,,,0.00,weatherlink.com 1.10,2013-09-24 10:07:00,
2013-09-24 03:22:00,46.1,44.0,29.78,North,355,0.0,0.0,93,0.00,,,0.00,weatherlink.com 1.10,2013-09-24 10:22:00,
2013-09-24 03:37:00,46.0,44.0,29.78,North,355,0.0,0.0,92,0.00,,,0.00,weatherlink.com 1.10,2013-09-24 10:37:00,
2013-09-24 03:52:00,45.5,43.0,29.78,North,355,0.0,0.0,92,0.00,,,0.00,weatherlink.com 1.10,2013-09-24 10:52:00,
2013-09-24 04:07:00,45.2,43.0,29.79,North,355,0.0,0.0,93,0.00,,,0.00,weatherlink.com 1.10,2013-09-24 11:07:00,
2013-09-24 04:22:00,45.2,44.0,29.79,North,355,0.0,0.0,94,0.00,,,0.00,weatherlink.com 1.10,2013-09-24 11:22:00,
2013-09-24 04:37:00,45.0,43.0,29.79,North,355,0.0,0.0,93,0.00,,,0.00,weatherlink.com 1.10,2013-09-24 11:37:00,
2013-09-24 04:52:00,44.9,43.0,29.80,North,355,0.0,1.0,94,0.00,,,0.00,weatherlink.com 1.10,2013-09-24 11:52:00,
2013-09-24 05:07:00,44.6,43.0,29.80,North,355,0.0,0.0,94,0.00,,,0.00,weatherlink.com 1.10,2013-09-24 12:07:00,
2013-09-24 05:22:00,44.3,43.0,29.80,North,355,0.0,2.0,94,0.00,,,0.00,weatherlink.com 1.10,2013-09-24 12:22:00,
2013-09-24 05:52:00,43.8,43.0,29.81,North,355,0.0,1.0,95,0.00,,,0.00,weatherlink.com 1.10,2013-09-24 12:52:00,
2013-09-24 06:07:00,43.6,42.0,29.82,North,355,0.0,0.0,94,0.00,,,0.00,weatherlink.com 1.10,2013-09-24 13:07:00,
2013-09-24 06:22:00,43.3,42.0,29.82,North,355,0.0,0.0,94,0.00,,,0.00,weatherlink.com 1.10,2013-09-24 13:22:00,
2013-09-24 06:37:00,43.1,42.0,29.83,North,355,0.0,2.0,94,0.00,,,0.00,weatherlink.com 1.10,2013-09-24 13:37:00,
2013-09-24 06:52:00,43.3,42.0,29.83,North,355,0.0,0.0,95,0.00,,,0.00,weatherlink.com 1.10,2013-09-24 13:52:00,
2013-09-24 07:08:00,45.1,44.0,29.83,North,355,0.0,0.0,96,0.00,,,0.00,weatherlink.com 1.10,2013-09-24 14:08:00,
2013-09-24 07:23:00,47.8,46.0,29.83,North,355,0.0,0.0,93,0.00,,,0.00,weatherlink.com 1.10,2013-09-24 14:23:00,
2013-09-24 07:38:00,51.0,47.0,29.83,North,355,0.0,1.0,86,0.00,,,0.00,weatherlink.com 1.10,2013-09-24 14:38:00,
2013-09-24 07:53:00,55.0,48.0,29.83,North,355,0.0,1.0,76,0.00,,,0.00,weatherlink.com 1.10,2013-09-24 14:53:00,
2013-09-24 08:08:00,58.4,49.0,29.83,North,355,0.0,1.0,70,0.00,,,0.00,weatherlink.com 1.10,2013-09-24 15:08:00,
2013-09-24 08:23:00,62.0,46.0,29.83,NW,320,0.0,4.0,56,0.00,,,0.00,weatherlink.com 1.10,2013-09-24 15:23:00,
2013-09-24 08:38:00,65.2,44.0,29.83,NW,320,0.0,2.0,46,0.00,,,0.00,weatherlink.com 1.10,2013-09-24 15:38:00,
2013-09-24 08:53:00,67.5,43.0,29.83,WNW,290,0.0,5.0,42,0.00,,,0.00,weatherlink.com 1.10,2013-09-24 15:53:00,
2013-09-24 09:08:00,69.7,45.0,29.83,WSW,257,3.0,3.0,42,0.00,,,0.00,weatherlink.com 1.10,2013-09-24 16:08:00,
2013-09-24 09:23:00,71.6,44.0,29.83,WSW,257,0.0,2.0,37,0.00,,,0.00,weatherlink.com 1.10,2013-09-24 16:23:00,
2013-09-24 09:38:00,73.3,44.0,29.82,WSW,257,1.0,2.0,35,0.00,,,0.00,weatherlink.com 1.10,2013-09-24 16:38:00,
2013-09-24 09:53:00,74.6,41.0,29.82,WSW,257,0.0,1.0,30,0.00,,,0.00,weatherlink.com 1.10,2013-09-24 16:53:00,
2013-09-24 10:08:00,75.1,43.0,29.82,WNW,300,1.0,3.0,32,0.00,,,0.00,weatherlink.com 1.10,2013-09-24 17:08:00,
2013-09-24 10:23:00,75.9,42.0,29.81,WNW,298,0.0,3.0,30,0.00,,,0.00,weatherlink.com 1.10,2013-09-24 17:23:00,
2013-09-24 10:38:00,77.4,44.0,29.81,SSW,198,1.0,4.0,31,0.00,,,0.00,weatherlink.com 1.10,2013-09-24 17:38:00,
2013-09-24 10:53:00,78.5,44.0,29.80,SSW,203,0.0,4.0,29,0.00,,,0.00,weatherlink.com 1.10,2013-09-24 17:53:00,
2013-09-24 11:08:00,79.2,45.0,29.79,South,188,1.0,4.0,30,0.00,,,0.00,weatherlink.com 1.10,2013-09-24 18:08:00,
2013-09-24 11:23:00,79.8,44.0,29.79,SSE,156,3.0,5.0,28,0.00,,,0.00,weatherlink.com 1.10,2013-09-24 18:23:00,
2013-09-24 11:38:00,80.2,43.0,29.77,ENE,67,2.0,5.0,27,0.00,,,0.00,weatherlink.com 1.10,2013-09-24 18:38:00,
2013-09-24 11:54:00,81.0,48.0,29.77,West,267,0.0,4.0,32,0.00,,,0.00,weatherlink.com 1.10,2013-09-24 18:54:00,
2013-09-24 12:09:00,82.5,44.0,29.76,SSW,207,2.0,5.0,26,0.00,,,0.00,weatherlink.com 1.10,2013-09-24 19:09:00,
2013-09-24 12:24:00,83.4,49.0,29.75,South,186,1.0,8.0,30,0.00,,,0.00,weatherlink.com 1.10,2013-09-24 19:24:00,
2013-09-24 12:39:00,84.2,49.0,29.74,SSE,152,3.0,5.0,29,0.00,,,0.00,weatherlink.com 1.10,2013-09-24 19:39:00,
2013-09-24 12:54:00,85.0,44.0,29.73,ESE,111,3.0,8.0,24,0.00,,,0.00,weatherlink.com 1.10,2013-09-24 19:54:00,
2013-09-24 13:09:00,85.4,44.0,29.71,East,95,1.0,9.0,23,0.00,,,0.00,weatherlink.com 1.10,2013-09-24 20:09:00,
2013-09-24 13:24:00,86.0,44.0,29.70,ESE,110,10.0,12.0,23,0.00,,,0.00,weatherlink.com 1.10,2013-09-24 20:24:00,
2013-09-24 13:39:00,86.1,42.0,29.70,ESE,107,5.0,14.0,21,0.00,,,0.00,weatherlink.com 1.10,2013-09-24 20:39:00,
2013-09-24 13:54:00,86.5,45.0,29.69,ESE,110,5.0,10.0,23,0.00,,,0.00,weatherlink.com 1.10,2013-09-24 20:54:00,
2013-09-24 14:09:00,86.8,37.0,29.68,SSW,206,7.0,10.0,17,0.00,,,0.00,weatherlink.com 1.10,2013-09-24 21:09:00,
2013-09-24 14:24:00,87.7,39.0,29.67,SSW,199,0.0,10.0,18,0.00,,,0.00,weatherlink.com 1.10,2013-09-24 21:24:00,
2013-09-24 14:39:00,87.8,38.0,29.67,East,91,5.0,8.0,17,0.00,,,0.00,weatherlink.com 1.10,2013-09-24 21:39:00,
2013-09-24 14:54:00,87.8,38.0,29.66,SE,132,1.0,10.0,17,0.00,,,0.00,weatherlink.com 1.10,2013-09-24 21:54:00,
2013-09-24 15:09:00,87.9,38.0,29.65,ESE,121,5.0,9.0,17,0.00,,,0.00,weatherlink.com 1.10,2013-09-24 22:09:00,
2013-09-24 15:24:00,87.9,39.0,29.65,SE,126,4.0,11.0,18,0.00,,,0.00,weatherlink.com 1.10,2013-09-24 22:24:00,
2013-09-24 15:39:00,87.7,39.0,29.65,ESE,119,1.0,8.0,18,0.00,,,0.00,weatherlink.com 1.10,2013-09-24 22:39:00,
2013-09-24 15:54:00,87.3,40.0,29.64,SE,136,3.0,9.0,19,0.00,,,0.00,weatherlink.com 1.10,2013-09-24 22:54:00,
2013-09-24 16:09:00,86.9,41.0,29.64,SW,218,3.0,8.0,20,0.00,,,0.00,weatherlink.com 1.10,2013-09-24 23:09:00,
2013-09-24 16:24:00,86.5,41.0,29.64,SSW,210,3.0,7.0,20,0.00,,,0.00,weatherlink.com 1.10,2013-09-24 23:24:00,
2013-09-24 16:39:00,85.7,43.0,29.63,South,176,6.0,9.0,22,0.00,,,0.00,weatherlink.com 1.10,2013-09-24 23:39:00,
2013-09-24 16:54:00,85.1,41.0,29.63,South,178,2.0,6.0,21,0.00,,,0.00,weatherlink.com 1.10,2013-09-24 23:54:00,
2013-09-24 17:09:00,84.2,41.0,29.63,SW,229,0.0,6.0,22,0.00,,,0.00,weatherlink.com 1.10,2013-09-25 00:09:00,
2013-09-24 17:24:00,83.5,38.0,29.63,SW,222,4.0,8.0,20,0.00,,,0.00,weatherlink.com 1.10,2013-09-25 00:24:00,
2013-09-24 17:39:00,82.4,40.0,29.63,South,184,4.0,7.0,22,0.00,,,0.00,weatherlink.com 1.10,2013-09-25 00:39:00,
2013-09-24 17:54:00,81.4,39.0,29.64,SSW,202,3.0,7.0,22,0.00,,,0.00,weatherlink.com 1.10,2013-09-25 00:54:00,
2013-09-24 18:09:00,79.9,39.0,29.63,South,171,4.0,5.0,23,0.00,,,0.00,weatherlink.com 1.10,2013-09-25 01:09:00,
2013-09-24 18:24:00,78.2,39.0,29.64,SW,217,2.0,7.0,24,0.00,,,0.00,weatherlink.com 1.10,2013-09-25 01:24:00,
2013-09-24 18:39:00,76.6,42.0,29.63,SSE,165,0.0,3.0,29,0.00,,,0.00,weatherlink.com 1.10,2013-09-25 01:39:00,
2013-09-24 18:54:00,73.9,43.0,29.64,SSE,166,0.0,1.0,33,0.00,,,0.00,weatherlink.com 1.10,2013-09-25 01:54:00,
2013-09-24 19:09:00,71.2,43.0,29.64,SSE,166,0.0,0.0,37,0.00,,,0.00,weatherlink.com 1.10,2013-09-25 02:09:00,
2013-09-24 19:24:00,68.6,44.0,29.64,SSE,166,0.0,0.0,42,0.00,,,0.00,weatherlink.com 1.10,2013-09-25 02:24:00,
2013-09-24 19:39:00,66.2,45.0,29.65,SSE,166,0.0,1.0,46,0.00,,,0.00,weatherlink.com 1.10,2013-09-25 02:39:00,
2013-09-24 19:54:00,64.2,45.0,29.65,SSE,166,0.0,1.0,50,0.00,,,0.00,weatherlink.com 1.10,2013-09-25 02:54:00,
2013-09-24 20:09:00,63.1,43.0,29.65,SW,234,0.0,4.0,49,0.00,,,0.00,weatherlink.com 1.10,2013-09-25 03:09:00,
2013-09-24 20:24:00,62.5,44.0,29.65,SSE,155,0.0,3.0,51,0.00,,,0.00,weatherlink.com 1.10,2013-09-25 03:24:00,
2013-09-24 20:39:00,61.4,42.0,29.65,SSE,155,0.0,1.0,50,0.00,,,0.00,weatherlink.com 1.10,2013-09-25 03:39:00,
2013-09-24 20:54:00,60.7,43.0,29.65,South,184,0.0,2.0,53,0.00,,,0.00,weatherlink.com 1.10,2013-09-25 03:54:00,
2013-09-24 21:09:00,59.9,44.0,29.65,SSW,208,1.0,2.0,56,0.00,,,0.00,weatherlink.com 1.10,2013-09-25 04:09:00,
2013-09-24 21:24:00,58.9,45.0,29.65,WNW,292,0.0,2.0,61,0.00,,,0.00,weatherlink.com 1.10,2013-09-25 04:24:00,
2013-09-24 21:39:00,58.2,45.0,29.65,WNW,292,0.0,2.0,62,0.00,,,0.00,weatherlink.com 1.10,2013-09-25 04:39:00,
2013-09-24 21:54:00,57.4,46.0,29.66,WNW,292,0.0,1.0,65,0.00,,,0.00,weatherlink.com 1.10,2013-09-25 04:54:00,
2013-09-24 22:09:00,56.4,45.0,29.66,WNW,292,0.0,1.0,67,0.00,,,0.00,weatherlink.com 1.10,2013-09-25 05:09:00,
2013-09-24 22:24:00,55.3,46.0,29.66,WNW,292,0.0,1.0,71,0.00,,,0.00,weatherlink.com 1.10,2013-09-25 05:24:00,
2013-09-24 22:39:00,54.4,46.0,29.66,WNW,292,0.0,1.0,73,0.00,,,0.00,weatherlink.com 1.10,2013-09-25 05:39:00,
2013-09-24 22:54:00,53.8,46.0,29.66,WNW,292,0.0,0.0,74,0.00,,,0.00,weatherlink.com 1.10,2013-09-25 05:54:00,
2013-09-24 23:09:00,52.9,46.0,29.65,WNW,292,0.0,1.0,77,0.00,,,0.00,weatherlink.com 1.10,2013-09-25 06:09:00,
2013-09-24 23:24:00,52.2,45.0,29.65,WNW,292,0.0,1.0,77,0.00,,,0.00,weatherlink.com 1.10,2013-09-25 06:24:00,
2013-09-24 23:40:00,51.6,46.0,29.64,WNW,292,0.0,0.0,80,0.00,,,0.00,weatherlink.com 1.10,2013-09-25 06:40:00,
2013-09-24 23:55:00,51.0,45.0,29.64,WNW,303,0.0,5.0,80,0.00,,,0.00,weatherlink.com 1.10,2013-09-25 06:55:00,